Data for 05/30/2010

Time Sea-Level Adjusted Pressure Absolute Pressure Temperature Relative Humidity Dew Point   
(mb) (inHg) (mb) (inHg) (C) (F) (%) (C) (F)
00:05 1020 30.12 849 25.07 4.6 40.3 85 2.2 36
00:10 1020 30.12 849 25.07 4.5 40.1 85 2.3 36.1
00:15 1020 30.12 849 25.07 4.4 39.9 86 2.2 36
00:20 1020 30.12 849 25.07 4.3 39.7 87 2.3 36.2
00:25 1020 30.12 849 25.07 4.1 39.4 87 2.1 35.7
00:30 1020 30.12 849 25.07 4.1 39.4 87 2.2 35.9
00:35 1020 30.12 849 25.07 4.1 39.4 87 2 35.7
00:40 1020 30.12 849 25.07 4.3 39.7 86 2.2 36
00:45 1020 30.12 849 25.07 4.1 39.4 87 2.2 35.9
00:50 1020 30.12 849 25.07 4.1 39.3 87 2.1 35.8
00:55 1020 30.12 849 25.07 4 39.3 87 2.1 35.8
01:00 1020 30.12 849 25.07 4 39.2 88 2.2 35.9
01:05 1020 30.12 849 25.07 4 39.2 88 2.2 35.9
01:10 1020 30.12 849 25.07 4 39.1 88 2.2 35.9
01:15 1020 30.12 849 25.07 4 39.2 86 1.9 35.5
01:20 1020 30.12 849 25.07 4.1 39.3 86 2 35.6
01:25 1020 30.12 849 25.07 3.9 39.1 87 2.1 35.7
01:30 1020 30.12 849 25.07 3.8 38.8 88 2 35.5
01:35 1020 30.12 849 25.07 3.8 38.8 88 2 35.5
01:40 1020 30.12 849 25.07 3.8 38.8 88 2 35.5
01:45 1020 30.12 849 25.07 3.9 39 87 2 35.6
01:50 1020 30.12 849 25.07 4 39.3 86 1.9 35.4
01:55 1020 30.12 849 25.07 4.3 39.8 84 1.8 35.3
02:00 1020 30.12 849 25.07 4.4 39.9 83 1.8 35.2
02:05 1020 30.12 849 25.07 4.4 40 83 1.8 35.3
02:10 1020 30.12 849 25.07 4.3 39.8 84 1.9 35.4
02:15 1020 30.12 849 25.07 4.3 39.7 83 1.7 35
02:20 1020 30.12 849 25.07 4.5 40.1 82 1.7 35
02:25 1020 30.12 849 25.07 4.6 40.3 82 1.8 35.3
02:30 1020 30.12 849 25.07 4.4 39.9 84 1.9 35.5
02:35 1020 30.12 849 25.07 4.2 39.6 84 1.7 35.1
02:40 1020 30.12 849 25.07 4.3 39.7 83 1.7 35.1
02:45 1020 30.12 849 25.07 4.4 39.8 84 1.8 35.3
02:50 1020 30.12 849 25.07 4 39.2 86 1.9 35.3
02:55 1019 30.09 849 25.07 3.7 38.7 87 1.7 35.1
03:00 1019 30.09 849 25.07 3.6 38.4 87 1.5 34.7
03:05 1020 30.12 849 25.07 3.4 38.1 86 1.3 34.3
03:10 1020 30.12 849 25.07 3.3 38 87 1.4 34.5
03:15 1020 30.12 849 25.07 3 37.5 88 1.2 34.1
03:20 1020 30.12 849 25.07 3.2 37.7 87 1.2 34.1
03:25 1019 30.09 849 25.07 3.4 38.1 85 1.1 34
03:30 1019 30.09 849 25.07 3.5 38.3 85 1.3 34.3
03:35 1019 30.09 849 25.07 3.2 37.8 86 1.1 33.9
03:40 1019 30.09 848 25.04 3.1 37.6 86 1 33.7
03:45 1019 30.09 848 25.04 3 37.5 86 0.9 33.7
03:50 1019 30.09 848 25.04 3 37.4 85 0.8 33.4
03:55 1019 30.09 848 25.04 3.1 37.5 85 0.8 33.4
04:00 1019 30.09 848 25.04 3 37.4 87 1.1 33.9
04:05 1019 30.09 848 25.04 3.2 37.7 86 1.1 33.9
04:10 1019 30.09 848 25.04 3.2 37.8 86 1.1 34
04:15 1019 30.09 848 25.04 3.2 37.8 86 1.2 34.1
04:20 1019 30.09 848 25.04 3.3 38 84 1 33.7
04:25 1019 30.09 848 25.04 3.5 38.4 84 1.2 34.1
04:30 1019 30.09 848 25.04 3.6 38.4 84 1.1 33.9
04:35 1019 30.09 848 25.04 3.6 38.4 85 1.4 34.4
04:40 1019 30.09 848 25.04 3.4 38.2 86 1.2 34.2
04:45 1019 30.09 848 25.04 3.3 38 86 1.1 34
04:50 1019 30.09 848 25.04 3.4 38.1 86 1.2 34.1
04:55 1019 30.09 848 25.04 3.3 37.9 87 1.2 34.2
05:00 1019 30.09 848 25.04 3.2 37.8 86 1.2 34.1
05:05 1019 30.09 848 25.04 3.4 38.1 84 0.9 33.6
05:10 1019 30.09 848 25.04 3.8 38.9 83 1.2 34.1
05:15 1019 30.09 848 25.04 3.7 38.7 84 1.2 34.2
05:20 1019 30.09 848 25.04 3.6 38.4 85 1.4 34.5
05:25 1019 30.09 848 25.04 3.5 38.4 86 1.4 34.4
05:30 1019 30.09 848 25.04 3.5 38.4 86 1.5 34.6
05:35 1019 30.09 848 25.04 3.5 38.3 87 1.5 34.7
05:40 1019 30.09 848 25.04 3.5 38.3 87 1.6 34.9
05:45 1019 30.09 848 25.04 3.5 38.4 87 1.6 34.9
05:50 1019 30.09 848 25.04 3.5 38.3 87 1.6 34.8
05:55 1019 30.09 848 25.04 3.6 38.5 87 1.6 34.9
06:00 1019 30.09 848 25.04 3.6 38.4 87 1.7 35
06:05 1019 30.09 848 25.04 3.7 38.6 85 1.4 34.5
06:10 1019 30.09 848 25.04 4 39.2 84 1.6 34.8
06:15 1019 30.09 848 25.04 4 39.2 84 1.6 34.9
06:20 1019 30.09 848 25.04 4 39.2 84 1.6 34.8
06:25 1019 30.09 848 25.04 4.1 39.3 84 1.6 34.9
06:30 1019 30.09 848 25.04 4.3 39.7 83 1.6 34.9
06:35 1019 30.09 848 25.04 4.3 39.7 84 1.8 35.2
06:40 1019 30.09 848 25.04 4.3 39.7 84 1.7 35.1
06:45 1019 30.09 848 25.04 4.4 39.9 84 1.9 35.5
06:50 1019 30.09 848 25.04 4.3 39.7 85 2 35.5
06:55 1019 30.09 848 25.04 4.3 39.7 85 2 35.5
07:00 1019 30.09 848 25.04 4.4 39.8 84 1.9 35.5
07:05 1019 30.09 848 25.04 4.5 40.1 85 2.1 35.9
07:10 1019 30.09 848 25.04 4.5 40.1 84 2.1 35.8
07:15 1019 30.09 848 25.04 4.6 40.2 84 2 35.7
07:20 1019 30.09 848 25.04 4.7 40.5 82 1.9 35.3
07:25 1019 30.09 848 25.04 5 40.9 79 1.6 34.9
07:30 1019 30.09 848 25.04 5.2 41.4 79 1.9 35.4
07:35 1019 30.09 848 25.04 5.4 41.7 80 2.2 36
07:40 1019 30.09 848 25.04 5.5 42 81 2.6 36.7
07:45 1019 30.09 848 25.04 5.7 42.3 79 2.5 36.4
07:50 1019 30.09 848 25.04 5.8 42.5 78 2.4 36.3
07:55 1019 30.09 848 25.04 6 42.9 76 2.1 35.7
08:00 1019 30.09 848 25.04 6.2 43.2 74 1.9 35.5
08:05 1019 30.09 848 25.04 6.4 43.5 74 2.1 35.7
08:10 1019 30.09 848 25.04 6.6 43.8 73 2.1 35.9
08:15 1019 30.09 848 25.04 6.7 44.1 74 2.4 36.4
08:20 1019 30.09 848 25.04 6.9 44.4 74 2.5 36.6
08:25 1019 30.09 848 25.04 7 44.6 74 2.6 36.7
08:30 1019 30.09 848 25.04 6.9 44.4 75 2.7 36.9
08:35 1019 30.09 848 25.04 6.7 44.1 71 1.8 35.3
08:40 1019 30.09 848 25.04 6.7 44 71 1.9 35.3
08:45 1019 30.09 848 25.04 6.7 44 72 2 35.5
08:50 1019 30.09 848 25.04 6.7 44 74 2.4 36.3
08:55 1019 30.09 848 25.04 6.9 44.4 74 2.6 36.7
09:00 1019 30.09 848 25.04 7.3 45.1 72 2.7 36.8
09:05 1019 30.09 848 25.04 7.6 45.7 70 2.5 36.5
09:10 1019 30.09 848 25.04 8.1 46.5 67 2.3 36.1
09:15 1019 30.09 848 25.04 8.5 47.3 63 2 35.5
09:20 1019 30.09 848 25.04 8.6 47.4 63 2 35.5
09:25 1019 30.09 848 25.04 8.4 47.1 65 2.3 36.2
09:30 1019 30.09 848 25.04 8.8 47.8 64 2.4 36.3
09:35 1019 30.09 848 25.04 8.8 47.9 65 2.6 36.7
09:40 1019 30.09 848 25.04 9.4 48.9 64 3 37.3
09:45 1019 30.09 848 25.04 10 50.1 52 0.8 33.4
09:50 1019 30.09 848 25.04 10.3 50.5 47 -0.4 31.3
09:55 1019 30.09 848 25.04 10.4 50.8 48 0.1 32.1
10:00 1019 30.09 848 25.04 10.1 50.2 49 -0.1 31.9
10:05 1019 30.09 848 25.04 10 50.1 49 -0.1 31.9
10:10 1019 30.09 848 25.04 10.1 50.2 49 -0.2 31.7
10:15 1018 30.06 848 25.04 10.3 50.6 48 -0.3 31.5
10:20 1018 30.06 848 25.04 11 51.7 44 -0.6 30.9
10:25 1018 30.06 848 25.04 11.8 53.2 44 -0.1 31.9
10:30 1018 30.06 847 25.01 11.7 53.1 44 0 32
10:35 1018 30.06 847 25.01 11.4 52.5 46 0.2 32.4
10:40 1018 30.06 847 25.01 11.2 52.1 43 -0.8 30.5
10:45 1018 30.06 847 25.01 10.8 51.5 44 -1 30.2
10:50 1018 30.06 847 25.01 11 51.7 42 -1.4 29.4
10:55 1018 30.06 847 25.01 11.1 51.9 41 -1.7 28.9
11:00 1018 30.06 847 25.01 11.3 52.4 42 -1.1 30.1
11:05 1018 30.06 847 25.01 12 53.5 40 -1.2 29.8
11:10 1018 30.06 847 25.01 12.2 53.9 41 -0.7 30.7
11:15 1018 30.06 847 25.01 11.3 52.4 45 -0 32
11:20 1018 30.06 847 25.01 11.1 51.9 43 -0.9 30.4
11:25 1018 30.06 847 25.01 11.2 52.1 43 -0.8 30.5
11:30 1018 30.06 847 25.01 11.2 52.2 43 -1 30.2
11:35 1018 30.06 847 25.01 11.3 52.3 44 -0.6 30.9
11:40 1018 30.06 847 25.01 11.7 53.1 41 -1.1 30
11:45 1018 30.06 847 25.01 11.5 52.7 42 -0.9 30.4
11:50 1018 30.06 847 25.01 11.4 52.6 43 -0.8 30.6
11:55 1018 30.06 847 25.01 11.3 52.4 44 -0.6 30.9
12:00 1018 30.06 847 25.01 11.2 52.2 45 -0.3 31.5
12:05 1018 30.06 847 25.01 11.2 52.2 44 -0.6 30.8
12:10 1018 30.06 847 25.01 11.5 52.6 44 -0.4 31.2
12:15 1018 30.06 847 25.01 11.8 53.2 36 -2.9 26.8
12:20 1018 30.06 847 25.01 12 53.6 37 -2.1 28.2
12:25 1018 30.06 847 25.01 12.2 53.9 38 -1.7 28.9
12:30 1018 30.06 847 25.01 12.5 54.5 41 -0.5 31.2
12:35 1018 30.06 847 25.01 12.1 53.7 43 0 32.1
12:40 1018 30.06 847 25.01 12 53.6 39 -1.3 29.6
12:45 1018 30.06 847 25.01 12.2 54 36 -2.2 28.1
12:50 1018 30.06 847 25.01 12.9 55.1 33 -2.8 27
12:55 1018 30.06 847 25.01 12.7 54.8 36 -2 28.3
13:00 1018 30.06 847 25.01 12.8 55 35 -2.2 28.1
13:05 1018 30.06 847 25.01 12.8 55.1 34 -2.5 27.5
13:10 1018 30.06 847 25.01 12.5 54.4 33 -3.2 26.3
13:15 1017 30.03 847 25.01 12.3 54.2 33 -3.6 25.6
13:20 1017 30.03 847 25.01 12.4 54.3 32 -4 24.9
13:25 1017 30.03 847 25.01 12.9 55.3 31 -3.6 25.4
13:30 1017 30.03 847 25.01 13.4 56.2 32 -2.7 27.1
13:35 1017 30.03 847 25.01 13.3 55.9 31 -3.5 25.8
13:40 1017 30.03 847 25.01 13.1 55.6 31 -3.5 25.6
13:45 1017 30.03 847 25.01 13 55.4 32 -3.2 26.2
13:50 1018 30.06 847 25.01 13 55.3 35 -2.1 28.2
13:55 1017 30.03 847 25.01 13.6 56.4 31 -3 26.6
14:00 1017 30.03 847 25.01 13.5 56.4 31 -3 26.6
14:05 1017 30.03 847 25.01 13.2 55.7 32 -3 26.7
14:10 1017 30.03 847 25.01 12.8 55 33 -2.8 26.9
14:15 1017 30.03 847 25.01 12.9 55.2 36 -1.8 28.7
14:20 1017 30.03 847 25.01 13.8 56.9 33 -2.1 28.2
14:25 1017 30.03 847 25.01 13.8 56.8 33 -2.2 28.1
14:30 1017 30.03 846 24.98 13.9 57 33 -2.2 28.1
14:35 1017 30.03 846 24.98 14.1 57.4 32 -2.3 27.8
14:40 1017 30.03 846 24.98 14.5 58.1 29 -3.1 26.5
14:45 1017 30.03 846 24.98 14.6 58.3 30 -2.8 27
14:50 1017 30.03 846 24.98 14.2 57.6 32 -2.2 28
14:55 1017 30.03 846 24.98 14.1 57.3 31 -2.8 26.9
15:00 1017 30.03 846 24.98 14.1 57.4 33 -1.7 29
15:05 1017 30.03 846 24.98 14.4 57.9 30 -2.7 27.2
15:10 1017 30.03 846 24.98 14.3 57.7 33 -1.9 28.6
15:15 1017 30.03 846 24.98 14.9 58.9 30 -2.3 27.9
15:20 1017 30.03 846 24.98 14.9 58.8 31 -2.1 28.2
15:25 1017 30.03 846 24.98 14.3 57.7 32 -2 28.3
15:30 1017 30.03 846 24.98 13.7 56.7 33 -2.2 28
15:35 1017 30.03 846 24.98 13.5 56.3 31 -3.1 26.3
15:40 1017 30.03 846 24.98 13.7 56.7 30 -3.5 25.8
15:45 1017 30.03 846 24.98 14.4 57.9 30 -2.9 26.7
15:50 1017 30.03 846 24.98 14.3 57.8 31 -2.6 27.4
15:55 1017 30.03 846 24.98 14.2 57.5 31 -2.5 27.5
16:00 1017 30.03 846 24.98 14 57.2 30 -3.2 26.2
16:05 1017 30.03 846 24.98 14.2 57.5 31 -2.8 27
16:10 1017 30.03 846 24.98 14.5 58.1 28 -3.6 25.6
16:15 1017 30.03 846 24.98 14.8 58.6 29 -2.9 26.8
16:20 1017 30.03 846 24.98 14.4 58 31 -2.6 27.3
16:25 1017 30.03 846 24.98 14.9 58.9 32 -1.6 29.2
16:30 1017 30.03 846 24.98 14.8 58.6 31 -2.2 28
16:35 1017 30.03 846 24.98 15.3 59.5 30 -2.3 27.9
16:40 1017 30.03 846 24.98 14.5 58 31 -2.4 27.8
16:45 1017 30.03 846 24.98 14.6 58.2 30 -2.9 26.8
16:50 1017 30.03 846 24.98 14.8 58.7 29 -2.7 27.1
16:55 1017 30.03 846 24.98 14.7 58.5 29 -3 26.7
17:00 1017 30.03 846 24.98 15.1 59.2 29 -2.7 27.1
17:05 1017 30.03 846 24.98 15.1 59.1 29 -2.8 26.9
17:10 1017 30.03 846 24.98 14.9 58.9 29 -2.8 26.9
17:15 1017 30.03 846 24.98 15.1 59.1 29 -2.8 27
17:20 1017 30.03 846 24.98 14.8 58.7 29 -2.9 26.8
17:25 1017 30.03 846 24.98 15.4 59.6 26 -3.9 25
17:30 1017 30.03 846 24.98 15.6 60 28 -2.6 27.2
17:35 1017 30.03 846 24.98 15.7 60.2 29 -2.3 27.9
17:40 1017 30.03 846 24.98 15.6 60.1 28 -2.6 27.3
17:45 1017 30.03 846 24.98 15.2 59.3 31 -1.9 28.5
17:50 1017 30.03 846 24.98 15.2 59.4 29 -2.7 27.1
17:55 1017 30.03 846 24.98 15.1 59.3 28 -3 26.6
18:00 1017 30.03 846 24.98 15.1 59.2 28 -3.2 26.3
18:05 1017 30.03 846 24.98 15.1 59.1 29 -3 26.6
18:10 1017 30.03 846 24.98 15.2 59.4 29 -2.8 27
18:15 1017 30.03 846 24.98 14.6 58.3 30 -2.7 27.1
18:20 1017 30.03 846 24.98 14.4 57.9 32 -2.1 28.3
18:25 1017 30.03 846 24.98 14.6 58.3 29 -3 26.6
18:30 1017 30.03 846 24.98 15.2 59.3 29 -2.5 27.5
18:35 1017 30.03 846 24.98 15.8 60.4 30 -1.6 29.2
18:40 1017 30.03 846 24.98 15.2 59.3 31 -1.6 29.1
18:45 1017 30.03 846 24.98 14.8 58.6 30 -2.5 27.5
18:50 1017 30.03 846 24.98 14.3 57.8 32 -2 28.4
18:55 1016 30 846 24.98 14.2 57.5 32 -2.2 28.1
19:00 1016 30 846 24.98 14.1 57.4 32 -2.3 27.9
19:05 1016 30 846 24.98 14.2 57.5 32 -2.3 27.9
19:10 1016 30 846 24.98 14.1 57.3 33 -1.8 28.7
19:15 1017 30.03 846 24.98 13.9 57 33 -1.9 28.5
19:20 1017 30.03 846 24.98 13.9 57 33 -2 28.3
19:25 1017 30.03 846 24.98 14 57.1 33 -2.2 28.1
19:30 1016 30 846 24.98 14.2 57.6 33 -1.9 28.5
19:35 1017 30.03 846 24.98 14.4 58 33 -1.7 28.9
19:40 1017 30.03 846 24.98 14.6 58.4 31 -2.3 27.8
19:45 1017 30.03 846 24.98 14.7 58.4 31 -2.3 27.9
19:50 1017 30.03 846 24.98 14.7 58.4 31 -2 28.4
19:55 1017 30.03 846 24.98 14.5 58.1 32 -2.1 28.3
20:00 1017 30.03 846 24.98 14.2 57.6 33 -1.7 28.9
20:05 1017 30.03 846 24.98 14 57.3 34 -1.4 29.5
20:10 1017 30.03 846 24.98 14 57.1 35 -1.2 29.9
20:15 1016 30 846 24.98 13.9 56.9 36 -1 30.2
20:20 1017 30.03 846 24.98 13.8 56.9 36 -0.9 30.4
20:25 1016 30 846 24.98 13.9 56.9 37 -0.7 30.8
20:30 1016 30 846 24.98 13.7 56.6 37 -0.5 31
20:35 1016 30 846 24.98 13.6 56.5 38 -0.3 31.5
20:40 1016 30 846 24.98 13.5 56.2 37 -0.9 30.4
20:45 1016 30 846 24.98 13.1 55.6 37 -1 30.1
20:50 1016 30 846 24.98 12.9 55.2 38 -0.9 30.4
20:55 1016 30 846 24.98 12.6 54.7 39 -0.8 30.6
21:00 1016 30 845 24.95 12.3 54.1 41 -0.7 30.8
21:05 1016 30 845 24.95 12 53.6 40 -1 30.1
21:10 1016 30 845 24.95 11.9 53.3 40 -1.4 29.5
21:15 1016 30 845 24.95 11.8 53.3 39 -1.6 29.2
21:20 1016 30 846 24.98 11.6 53 42 -0.7 30.8
21:25 1016 30 846 24.98 10.9 51.6 47 0.1 32.2
21:30 1016 30 846 24.98 10.5 51 46 -0.6 31
21:35 1016 30 846 24.98 10.6 51.1 47 -0.3 31.5
21:40 1017 30.03 846 24.98 10.4 50.7 48 -0.1 31.7
21:45 1017 30.03 846 24.98 10.3 50.6 47 -0.6 30.9
21:50 1017 30.03 846 24.98 10.5 50.9 46 -0.5 31
21:55 1017 30.03 846 24.98 10.6 51 46 -0.5 31.2
22:00 1017 30.03 846 24.98 10.6 51 45 -0.7 30.7
22:05 1017 30.03 846 24.98 10.7 51.2 46 -0.5 31
22:10 1017 30.03 846 24.98 10.7 51.3 46 -0.4 31.3
22:15 1017 30.03 846 24.98 10.8 51.4 47 0.1 32.1
22:20 1017 30.03 846 24.98 10.7 51.3 45 -0.8 30.6
22:25 1017 30.03 846 24.98 11.3 52.3 42 -1.1 30.1
22:30 1017 30.03 846 24.98 11.4 52.6 42 -1.1 30.1
22:35 1017 30.03 846 24.98 11.2 52.2 46 -0 31.9
22:40 1017 30.03 846 24.98 10.8 51.4 46 -0.4 31.2
22:45 1017 30.03 846 24.98 10.8 51.4 46 -0.4 31.2
22:50 1017 30.03 846 24.98 10.8 51.4 45 -0.7 30.8
22:55 1017 30.03 846 24.98 10.8 51.5 46 -0.4 31.3
23:00 1017 30.03 846 24.98 10.8 51.5 45 -0.7 30.7
23:05 1016 30 846 24.98 10.9 51.6 44 -0.7 30.8
23:10 1017 30.03 846 24.98 10.9 51.6 45 -0.4 31.3
23:15 1016 30 846 24.98 10.8 51.4 47 -0.2 31.7
23:20 1016 30 846 24.98 11 51.9 43 -1.2 29.9
23:25 1017 30.03 846 24.98 11.6 52.8 43 -0.7 30.8
23:30 1016 30 846 24.98 11.6 52.9 41 -1 30.1
23:35 1016 30 846 24.98 11.7 53 42 -0.7 30.7
23:40 1016 30 846 24.98 11.6 52.9 41 -1.1 29.9
23:45 1016 30 846 24.98 11.8 53.2 40 -1.4 29.5
23:50 1016 30 846 24.98 11.9 53.5 39 -1.4 29.4
23:55 1016 30 846 24.98 12.1 53.7 39 -1.5 29.3
24:00 1016 30 846 24.98 12 53.5 39 -1.3 29.6